sensor_id;sensor_type;location;lat;lon;timestamp;P1;durP1;ratioP1;P2;durP2;ratioP2
15307;SDS011;7755;52.208;6.964;2022-11-25T00:03:14;9.70;;;4.50;;
15307;SDS011;7755;52.208;6.964;2022-11-25T00:07:17;8.00;;;4.50;;
15307;SDS011;7755;52.208;6.964;2022-11-25T00:11:20;11.43;;;5.13;;
15307;SDS011;7755;52.208;6.964;2022-11-25T00:15:23;9.33;;;4.77;;
15307;SDS011;7755;52.208;6.964;2022-11-25T00:19:27;9.77;;;5.03;;
15307;SDS011;7755;52.208;6.964;2022-11-25T00:23:30;9.43;;;4.50;;
15307;SDS011;7755;52.208;6.964;2022-11-25T00:27:33;10.40;;;4.97;;
15307;SDS011;7755;52.208;6.964;2022-11-25T00:31:37;12.93;;;4.70;;
15307;SDS011;7755;52.208;6.964;2022-11-25T00:35:42;10.17;;;5.40;;
15307;SDS011;7755;52.208;6.964;2022-11-25T00:39:45;7.73;;;4.57;;
15307;SDS011;7755;52.208;6.964;2022-11-25T00:43:48;12.93;;;5.43;;
15307;SDS011;7755;52.208;6.964;2022-11-25T00:48:08;10.37;;;5.20;;
15307;SDS011;7755;52.208;6.964;2022-11-25T00:52:13;11.50;;;6.27;;
15307;SDS011;7755;52.208;6.964;2022-11-25T00:56:17;13.90;;;4.83;;
15307;SDS011;7755;52.208;6.964;2022-11-25T01:00:21;6.97;;;4.70;;
15307;SDS011;7755;52.208;6.964;2022-11-25T01:04:23;8.87;;;5.40;;
15307;SDS011;7755;52.208;6.964;2022-11-25T01:08:29;9.47;;;4.67;;
15307;SDS011;7755;52.208;6.964;2022-11-25T01:12:32;7.90;;;4.30;;
15307;SDS011;7755;52.208;6.964;2022-11-25T01:16:35;11.57;;;4.63;;
15307;SDS011;7755;52.208;6.964;2022-11-25T01:20:40;7.37;;;4.17;;
15307;SDS011;7755;52.208;6.964;2022-11-25T01:24:45;8.20;;;5.00;;
15307;SDS011;7755;52.208;6.964;2022-11-25T01:28:47;12.10;;;5.30;;
15307;SDS011;7755;52.208;6.964;2022-11-25T01:32:54;12.27;;;5.27;;
15307;SDS011;7755;52.208;6.964;2022-11-25T01:36:57;11.30;;;4.80;;
15307;SDS011;7755;52.208;6.964;2022-11-25T01:41:02;7.80;;;4.33;;
15307;SDS011;7755;52.208;6.964;2022-11-25T01:45:28;11.50;;;4.57;;
15307;SDS011;7755;52.208;6.964;2022-11-25T01:49:36;7.83;;;4.27;;
15307;SDS011;7755;52.208;6.964;2022-11-25T01:53:42;9.80;;;4.33;;
15307;SDS011;7755;52.208;6.964;2022-11-25T01:57:47;9.07;;;5.03;;
15307;SDS011;7755;52.208;6.964;2022-11-25T02:01:57;11.17;;;4.17;;
15307;SDS011;7755;52.208;6.964;2022-11-25T02:06:03;10.07;;;4.57;;
15307;SDS011;7755;52.208;6.964;2022-11-25T02:10:12;9.23;;;4.30;;
15307;SDS011;7755;52.208;6.964;2022-11-25T02:14:19;10.13;;;4.97;;
15307;SDS011;7755;52.208;6.964;2022-11-25T02:18:25;11.97;;;4.40;;
15307;SDS011;7755;52.208;6.964;2022-11-25T02:22:31;10.43;;;5.40;;
15307;SDS011;7755;52.208;6.964;2022-11-25T02:26:43;11.63;;;4.40;;
15307;SDS011;7755;52.208;6.964;2022-11-25T02:30:46;12.77;;;4.20;;
15307;SDS011;7755;52.208;6.964;2022-11-25T02:34:51;7.67;;;4.37;;
15307;SDS011;7755;52.208;6.964;2022-11-25T02:38:54;8.67;;;4.17;;
15307;SDS011;7755;52.208;6.964;2022-11-25T02:43:01;12.53;;;4.50;;
15307;SDS011;7755;52.208;6.964;2022-11-25T02:47:08;10.83;;;4.43;;
15307;SDS011;7755;52.208;6.964;2022-11-25T02:51:13;11.50;;;4.33;;
15307;SDS011;7755;52.208;6.964;2022-11-25T02:55:18;9.23;;;4.23;;
15307;SDS011;7755;52.208;6.964;2022-11-25T02:59:22;8.53;;;4.63;;
15307;SDS011;7755;52.208;6.964;2022-11-25T03:03:24;12.23;;;4.57;;
15307;SDS011;7755;52.208;6.964;2022-11-25T03:07:27;12.80;;;5.00;;
15307;SDS011;7755;52.208;6.964;2022-11-25T03:11:33;10.37;;;4.10;;
15307;SDS011;7755;52.208;6.964;2022-11-25T03:15:56;10.73;;;4.47;;
15307;SDS011;7755;52.208;6.964;2022-11-25T03:20:00;8.50;;;4.13;;
15307;SDS011;7755;52.208;6.964;2022-11-25T03:24:03;7.37;;;3.60;;
15307;SDS011;7755;52.208;6.964;2022-11-25T03:28:06;9.80;;;4.47;;
15307;SDS011;7755;52.208;6.964;2022-11-25T03:32:10;10.20;;;4.40;;
15307;SDS011;7755;52.208;6.964;2022-11-25T03:36:13;7.33;;;4.10;;
15307;SDS011;7755;52.208;6.964;2022-11-25T03:40:16;11.13;;;5.10;;
15307;SDS011;7755;52.208;6.964;2022-11-25T03:44:19;7.77;;;4.93;;
15307;SDS011;7755;52.208;6.964;2022-11-25T03:48:23;10.23;;;5.37;;
15307;SDS011;7755;52.208;6.964;2022-11-25T03:52:26;12.90;;;5.10;;
15307;SDS011;7755;52.208;6.964;2022-11-25T03:56:31;8.93;;;4.53;;
15307;SDS011;7755;52.208;6.964;2022-11-25T04:00:34;10.00;;;4.87;;
15307;SDS011;7755;52.208;6.964;2022-11-25T04:04:38;12.77;;;5.13;;
15307;SDS011;7755;52.208;6.964;2022-11-25T04:08:42;9.10;;;5.30;;
15307;SDS011;7755;52.208;6.964;2022-11-25T04:12:46;12.23;;;5.50;;
15307;SDS011;7755;52.208;6.964;2022-11-25T04:16:59;10.93;;;5.57;;
15307;SDS011;7755;52.208;6.964;2022-11-25T04:21:04;9.27;;;4.93;;
15307;SDS011;7755;52.208;6.964;2022-11-25T04:25:07;12.33;;;6.13;;
15307;SDS011;7755;52.208;6.964;2022-11-25T04:29:10;11.63;;;5.37;;
15307;SDS011;7755;52.208;6.964;2022-11-25T04:33:14;14.03;;;6.00;;
15307;SDS011;7755;52.208;6.964;2022-11-25T04:37:21;10.93;;;5.27;;
15307;SDS011;7755;52.208;6.964;2022-11-25T04:41:24;11.37;;;5.40;;
15307;SDS011;7755;52.208;6.964;2022-11-25T04:45:27;13.10;;;5.87;;
15307;SDS011;7755;52.208;6.964;2022-11-25T04:49:50;18.17;;;6.70;;
15307;SDS011;7755;52.208;6.964;2022-11-25T04:53:55;12.80;;;5.43;;
15307;SDS011;7755;52.208;6.964;2022-11-25T04:57:58;11.93;;;6.53;;
15307;SDS011;7755;52.208;6.964;2022-11-25T05:02:03;14.10;;;6.40;;
15307;SDS011;7755;52.208;6.964;2022-11-25T05:06:10;9.53;;;5.83;;
15307;SDS011;7755;52.208;6.964;2022-11-25T05:10:14;19.07;;;6.97;;
15307;SDS011;7755;52.208;6.964;2022-11-25T05:14:20;16.43;;;7.13;;
15307;SDS011;7755;52.208;6.964;2022-11-25T05:18:24;14.87;;;6.90;;
15307;SDS011;7755;52.208;6.964;2022-11-25T05:22:27;12.00;;;6.70;;
15307;SDS011;7755;52.208;6.964;2022-11-25T05:26:33;11.27;;;6.30;;
15307;SDS011;7755;52.208;6.964;2022-11-25T05:30:36;14.53;;;7.30;;
15307;SDS011;7755;52.208;6.964;2022-11-25T05:34:39;10.93;;;5.90;;
15307;SDS011;7755;52.208;6.964;2022-11-25T05:38:42;12.07;;;6.80;;
15307;SDS011;7755;52.208;6.964;2022-11-25T05:42:51;12.20;;;6.30;;
15307;SDS011;7755;52.208;6.964;2022-11-25T05:46:54;7.63;;;6.30;;
15307;SDS011;7755;52.208;6.964;2022-11-25T05:50:58;15.50;;;6.93;;
15307;SDS011;7755;52.208;6.964;2022-11-25T05:55:02;12.57;;;6.93;;
15307;SDS011;7755;52.208;6.964;2022-11-25T05:59:08;12.77;;;7.50;;
15307;SDS011;7755;52.208;6.964;2022-11-25T06:03:22;13.70;;;7.67;;
15307;SDS011;7755;52.208;6.964;2022-11-25T06:07:25;12.23;;;7.63;;
15307;SDS011;7755;52.208;6.964;2022-11-25T06:11:28;12.37;;;7.60;;
15307;SDS011;7755;52.208;6.964;2022-11-25T06:15:32;14.60;;;8.47;;
15307;SDS011;7755;52.208;6.964;2022-11-25T06:19:37;16.30;;;8.30;;
15307;SDS011;7755;52.208;6.964;2022-11-25T06:23:41;15.37;;;8.90;;
15307;SDS011;7755;52.208;6.964;2022-11-25T06:27:48;12.63;;;8.50;;
15307;SDS011;7755;52.208;6.964;2022-11-25T06:32:12;18.83;;;10.97;;
15307;SDS011;7755;52.208;6.964;2022-11-25T06:36:29;12.73;;;8.00;;
15307;SDS011;7755;52.208;6.964;2022-11-25T06:40:32;12.27;;;8.20;;
15307;SDS011;7755;52.208;6.964;2022-11-25T06:44:34;14.30;;;8.77;;
15307;SDS011;7755;52.208;6.964;2022-11-25T06:48:39;13.97;;;9.17;;
15307;SDS011;7755;52.208;6.964;2022-11-25T06:52:42;13.60;;;8.13;;
15307;SDS011;7755;52.208;6.964;2022-11-25T06:56:45;12.30;;;8.23;;
15307;SDS011;7755;52.208;6.964;2022-11-25T07:00:51;10.13;;;8.13;;
15307;SDS011;7755;52.208;6.964;2022-11-25T07:04:55;13.83;;;7.80;;
15307;SDS011;7755;52.208;6.964;2022-11-25T07:08:58;11.83;;;7.20;;
15307;SDS011;7755;52.208;6.964;2022-11-25T07:13:02;14.83;;;7.73;;
15307;SDS011;7755;52.208;6.964;2022-11-25T07:17:05;10.97;;;7.30;;
15307;SDS011;7755;52.208;6.964;2022-11-25T07:21:14;8.63;;;7.00;;
15307;SDS011;7755;52.208;6.964;2022-11-25T07:25:18;13.47;;;8.40;;
15307;SDS011;7755;52.208;6.964;2022-11-25T07:29:21;12.93;;;7.67;;
15307;SDS011;7755;52.208;6.964;2022-11-25T07:33:45;10.03;;;6.80;;
15307;SDS011;7755;52.208;6.964;2022-11-25T07:37:49;15.57;;;8.30;;
15307;SDS011;7755;52.208;6.964;2022-11-25T07:41:53;11.53;;;8.57;;
15307;SDS011;7755;52.208;6.964;2022-11-25T07:46:02;11.40;;;7.60;;
15307;SDS011;7755;52.208;6.964;2022-11-25T07:50:10;8.60;;;7.40;;
15307;SDS011;7755;52.208;6.964;2022-11-25T07:54:14;12.07;;;7.20;;
15307;SDS011;7755;52.208;6.964;2022-11-25T07:58:17;16.43;;;9.47;;
15307;SDS011;7755;52.208;6.964;2022-11-25T08:02:20;11.10;;;8.20;;
15307;SDS011;7755;52.208;6.964;2022-11-25T08:06:25;12.03;;;8.03;;
15307;SDS011;7755;52.208;6.964;2022-11-25T08:10:30;16.13;;;8.10;;
15307;SDS011;7755;52.208;6.964;2022-11-25T08:14:34;8.80;;;7.07;;
15307;SDS011;7755;52.208;6.964;2022-11-25T08:18:37;13.93;;;8.07;;
15307;SDS011;7755;52.208;6.964;2022-11-25T08:22:40;11.27;;;6.83;;
15307;SDS011;7755;52.208;6.964;2022-11-25T08:26:48;11.07;;;7.37;;
15307;SDS011;7755;52.208;6.964;2022-11-25T08:30:51;9.93;;;7.23;;
15307;SDS011;7755;52.208;6.964;2022-11-25T08:34:54;8.67;;;6.77;;
15307;SDS011;7755;52.208;6.964;2022-11-25T08:38:58;13.23;;;7.00;;
15307;SDS011;7755;52.208;6.964;2022-11-25T08:43:04;13.57;;;6.60;;
15307;SDS011;7755;52.208;6.964;2022-11-25T08:47:07;12.23;;;6.30;;
15307;SDS011;7755;52.208;6.964;2022-11-25T08:51:11;9.73;;;6.40;;
15307;SDS011;7755;52.208;6.964;2022-11-25T08:55:15;8.20;;;6.30;;
15307;SDS011;7755;52.208;6.964;2022-11-25T08:59:20;11.03;;;6.60;;
15307;SDS011;7755;52.208;6.964;2022-11-25T09:03:25;9.77;;;5.90;;
15307;SDS011;7755;52.208;6.964;2022-11-25T09:07:29;8.80;;;5.63;;
15307;SDS011;7755;52.208;6.964;2022-11-25T09:11:32;12.20;;;6.13;;
15307;SDS011;7755;52.208;6.964;2022-11-25T09:15:36;9.40;;;6.10;;
15307;SDS011;7755;52.208;6.964;2022-11-25T09:19:40;8.67;;;5.70;;
15307;SDS011;7755;52.208;6.964;2022-11-25T09:23:43;7.60;;;5.33;;
15307;SDS011;7755;52.208;6.964;2022-11-25T09:27:46;12.10;;;6.07;;
15307;SDS011;7755;52.208;6.964;2022-11-25T09:31:51;10.53;;;5.47;;
15307;SDS011;7755;52.208;6.964;2022-11-25T09:35:58;7.00;;;6.07;;
15307;SDS011;7755;52.208;6.964;2022-11-25T09:40:02;10.57;;;6.10;;
15307;SDS011;7755;52.208;6.964;2022-11-25T09:44:06;7.70;;;5.87;;
15307;SDS011;7755;52.208;6.964;2022-11-25T09:48:47;10.13;;;6.03;;
15307;SDS011;7755;52.208;6.964;2022-11-25T09:53:01;6.57;;;5.33;;
15307;SDS011;7755;52.208;6.964;2022-11-25T09:57:18;7.47;;;5.27;;
15307;SDS011;7755;52.208;6.964;2022-11-25T10:01:25;8.47;;;5.50;;
15307;SDS011;7755;52.208;6.964;2022-11-25T10:05:33;7.60;;;4.67;;
15307;SDS011;7755;52.208;6.964;2022-11-25T10:09:40;16.37;;;6.37;;
15307;SDS011;7755;52.208;6.964;2022-11-25T10:13:45;11.03;;;5.83;;
15307;SDS011;7755;52.208;6.964;2022-11-25T10:17:54;6.60;;;4.93;;
15307;SDS011;7755;52.208;6.964;2022-11-25T10:22:06;8.33;;;4.47;;
15307;SDS011;7755;52.208;6.964;2022-11-25T10:26:19;8.73;;;4.77;;
15307;SDS011;7755;52.208;6.964;2022-11-25T10:30:24;9.20;;;4.63;;
15307;SDS011;7755;52.208;6.964;2022-11-25T10:34:30;6.73;;;4.40;;
15307;SDS011;7755;52.208;6.964;2022-11-25T10:38:40;10.37;;;4.83;;
15307;SDS011;7755;52.208;6.964;2022-11-25T10:42:46;5.73;;;4.70;;
15307;SDS011;7755;52.208;6.964;2022-11-25T10:46:51;4.93;;;4.03;;
15307;SDS011;7755;52.208;6.964;2022-11-25T10:51:23;8.03;;;3.93;;
15307;SDS011;7755;52.208;6.964;2022-11-25T10:55:36;8.73;;;4.57;;
15307;SDS011;7755;52.208;6.964;2022-11-25T10:59:40;8.17;;;4.37;;
15307;SDS011;7755;52.208;6.964;2022-11-25T11:03:43;7.03;;;4.10;;
15307;SDS011;7755;52.208;6.964;2022-11-25T11:07:48;5.73;;;4.40;;
15307;SDS011;7755;52.208;6.964;2022-11-25T11:12:17;7.30;;;4.40;;
15307;SDS011;7755;52.208;6.964;2022-11-25T11:16:25;7.27;;;5.23;;
15307;SDS011;7755;52.208;6.964;2022-11-25T11:20:31;9.00;;;5.13;;
15307;SDS011;7755;52.208;6.964;2022-11-25T11:24:36;8.90;;;4.93;;
15307;SDS011;7755;52.208;6.964;2022-11-25T11:28:40;8.80;;;4.87;;
15307;SDS011;7755;52.208;6.964;2022-11-25T11:32:44;8.37;;;5.40;;
15307;SDS011;7755;52.208;6.964;2022-11-25T11:37:00;11.17;;;4.83;;
15307;SDS011;7755;52.208;6.964;2022-11-25T11:41:20;10.43;;;5.13;;
15307;SDS011;7755;52.208;6.964;2022-11-25T11:45:40;6.73;;;5.07;;
15307;SDS011;7755;52.208;6.964;2022-11-25T11:49:58;7.40;;;5.07;;
15307;SDS011;7755;52.208;6.964;2022-11-25T11:54:11;7.63;;;4.60;;
15307;SDS011;7755;52.208;6.964;2022-11-25T11:58:22;10.73;;;8.27;;
15307;SDS011;7755;52.208;6.964;2022-11-25T12:02:37;9.17;;;4.90;;
15307;SDS011;7755;52.208;6.964;2022-11-25T12:06:55;8.43;;;4.63;;
15307;SDS011;7755;52.208;6.964;2022-11-25T12:11:04;7.53;;;5.17;;
15307;SDS011;7755;52.208;6.964;2022-11-25T12:15:14;11.10;;;5.50;;
15307;SDS011;7755;52.208;6.964;2022-11-25T12:19:23;8.07;;;5.03;;
15307;SDS011;7755;52.208;6.964;2022-11-25T12:23:36;7.97;;;4.70;;
15307;SDS011;7755;52.208;6.964;2022-11-25T12:27:47;9.87;;;5.23;;
15307;SDS011;7755;52.208;6.964;2022-11-25T12:31:56;9.40;;;4.67;;
15307;SDS011;7755;52.208;6.964;2022-11-25T12:36:07;9.60;;;4.80;;
15307;SDS011;7755;52.208;6.964;2022-11-25T12:40:15;9.17;;;5.73;;
15307;SDS011;7755;52.208;6.964;2022-11-25T12:44:27;8.77;;;4.63;;
15307;SDS011;7755;52.208;6.964;2022-11-25T12:48:41;7.50;;;4.70;;
15307;SDS011;7755;52.208;6.964;2022-11-25T12:52:49;10.13;;;4.97;;
15307;SDS011;7755;52.208;6.964;2022-11-25T12:57:13;10.77;;;6.07;;
15307;SDS011;7755;52.208;6.964;2022-11-25T13:06:21;9.20;;;5.17;;
15307;SDS011;7755;52.208;6.964;2022-11-25T13:10:41;9.47;;;6.13;;
15307;SDS011;7755;52.208;6.964;2022-11-25T13:15:14;10.50;;;5.67;;
15307;SDS011;7755;52.208;6.964;2022-11-25T13:19:24;10.03;;;5.17;;
15307;SDS011;7755;52.208;6.964;2022-11-25T13:23:29;6.90;;;5.67;;
15307;SDS011;7755;52.208;6.964;2022-11-25T13:27:57;6.67;;;4.33;;
15307;SDS011;7755;52.208;6.964;2022-11-25T13:32:02;9.20;;;5.33;;
15307;SDS011;7755;52.208;6.964;2022-11-25T13:36:41;7.47;;;5.33;;
15307;SDS011;7755;52.208;6.964;2022-11-25T13:40:46;7.60;;;5.13;;
15307;SDS011;7755;52.208;6.964;2022-11-25T13:44:59;8.27;;;5.80;;
15307;SDS011;7755;52.208;6.964;2022-11-25T13:49:03;7.27;;;5.33;;
15307;SDS011;7755;52.208;6.964;2022-11-25T13:53:16;10.63;;;5.57;;
15307;SDS011;7755;52.208;6.964;2022-11-25T13:57:24;10.63;;;7.07;;
15307;SDS011;7755;52.208;6.964;2022-11-25T14:01:30;11.93;;;6.70;;
15307;SDS011;7755;52.208;6.964;2022-11-25T14:05:49;13.13;;;6.23;;
15307;SDS011;7755;52.208;6.964;2022-11-25T14:14:44;11.30;;;6.80;;
15307;SDS011;7755;52.208;6.964;2022-11-25T14:19:04;9.30;;;6.57;;
15307;SDS011;7755;52.208;6.964;2022-11-25T14:23:56;6.20;;;5.07;;
15307;SDS011;7755;52.208;6.964;2022-11-25T14:28:09;7.83;;;6.60;;
15307;SDS011;7755;52.208;6.964;2022-11-25T14:32:24;9.67;;;6.73;;
15307;SDS011;7755;52.208;6.964;2022-11-25T14:36:34;10.50;;;7.23;;
15307;SDS011;7755;52.208;6.964;2022-11-25T14:40:43;13.47;;;7.47;;
15307;SDS011;7755;52.208;6.964;2022-11-25T14:44:55;11.47;;;7.87;;
15307;SDS011;7755;52.208;6.964;2022-11-25T14:48:59;14.67;;;8.30;;
15307;SDS011;7755;52.208;6.964;2022-11-25T14:53:12;12.90;;;6.67;;
15307;SDS011;7755;52.208;6.964;2022-11-25T14:57:20;13.50;;;9.37;;
15307;SDS011;7755;52.208;6.964;2022-11-25T15:01:28;13.73;;;7.23;;
15307;SDS011;7755;52.208;6.964;2022-11-25T15:05:32;11.87;;;8.00;;
15307;SDS011;7755;52.208;6.964;2022-11-25T15:09:41;11.67;;;7.67;;
15307;SDS011;7755;52.208;6.964;2022-11-25T15:13:46;19.43;;;15.00;;
15307;SDS011;7755;52.208;6.964;2022-11-25T15:17:53;22.97;;;15.33;;
15307;SDS011;7755;52.208;6.964;2022-11-25T15:21:56;21.50;;;16.53;;
15307;SDS011;7755;52.208;6.964;2022-11-25T15:26:24;26.40;;;19.37;;
15307;SDS011;7755;52.208;6.964;2022-11-25T15:30:30;19.60;;;13.67;;
15307;SDS011;7755;52.208;6.964;2022-11-25T15:34:41;13.13;;;8.00;;
15307;SDS011;7755;52.208;6.964;2022-11-25T15:38:46;15.43;;;9.67;;
15307;SDS011;7755;52.208;6.964;2022-11-25T15:42:50;12.77;;;8.03;;
15307;SDS011;7755;52.208;6.964;2022-11-25T15:46:54;11.83;;;8.20;;
15307;SDS011;7755;52.208;6.964;2022-11-25T15:51:01;15.93;;;8.00;;
15307;SDS011;7755;52.208;6.964;2022-11-25T15:55:06;8.93;;;6.37;;
15307;SDS011;7755;52.208;6.964;2022-11-25T15:59:39;10.17;;;6.73;;
15307;SDS011;7755;52.208;6.964;2022-11-25T16:03:47;12.53;;;6.60;;
15307;SDS011;7755;52.208;6.964;2022-11-25T16:08:01;13.03;;;9.13;;
15307;SDS011;7755;52.208;6.964;2022-11-25T16:12:25;16.30;;;12.43;;
15307;SDS011;7755;52.208;6.964;2022-11-25T16:16:30;9.70;;;8.80;;
15307;SDS011;7755;52.208;6.964;2022-11-25T16:20:33;13.37;;;9.77;;
15307;SDS011;7755;52.208;6.964;2022-11-25T16:24:38;15.87;;;10.30;;
15307;SDS011;7755;52.208;6.964;2022-11-25T16:28:49;18.03;;;12.30;;
15307;SDS011;7755;52.208;6.964;2022-11-25T16:32:54;15.43;;;10.33;;
15307;SDS011;7755;52.208;6.964;2022-11-25T16:36:57;11.70;;;8.70;;
15307;SDS011;7755;52.208;6.964;2022-11-25T16:41:01;14.17;;;9.83;;
15307;SDS011;7755;52.208;6.964;2022-11-25T16:45:14;12.93;;;9.67;;
15307;SDS011;7755;52.208;6.964;2022-11-25T16:49:22;16.57;;;11.90;;
15307;SDS011;7755;52.208;6.964;2022-11-25T16:53:26;14.57;;;9.03;;
15307;SDS011;7755;52.208;6.964;2022-11-25T16:57:29;14.10;;;9.93;;
15307;SDS011;7755;52.208;6.964;2022-11-25T17:01:32;16.63;;;11.37;;
15307;SDS011;7755;52.208;6.964;2022-11-25T17:05:37;16.07;;;10.50;;
15307;SDS011;7755;52.208;6.964;2022-11-25T17:09:39;18.47;;;12.77;;
15307;SDS011;7755;52.208;6.964;2022-11-25T17:13:44;24.80;;;16.87;;
15307;SDS011;7755;52.208;6.964;2022-11-25T17:17:50;17.77;;;13.83;;
15307;SDS011;7755;52.208;6.964;2022-11-25T17:21:55;19.37;;;13.53;;
15307;SDS011;7755;52.208;6.964;2022-11-25T17:26:00;18.07;;;12.70;;
15307;SDS011;7755;52.208;6.964;2022-11-25T17:30:03;22.63;;;16.17;;
15307;SDS011;7755;52.208;6.964;2022-11-25T17:34:09;19.43;;;13.27;;
15307;SDS011;7755;52.208;6.964;2022-11-25T17:38:17;16.73;;;13.30;;
15307;SDS011;7755;52.208;6.964;2022-11-25T17:42:21;22.23;;;14.67;;
15307;SDS011;7755;52.208;6.964;2022-11-25T17:46:28;18.70;;;13.03;;
15307;SDS011;7755;52.208;6.964;2022-11-25T17:50:31;17.87;;;12.43;;
15307;SDS011;7755;52.208;6.964;2022-11-25T17:54:37;16.80;;;11.83;;
15307;SDS011;7755;52.208;6.964;2022-11-25T17:58:41;21.07;;;13.10;;
15307;SDS011;7755;52.208;6.964;2022-11-25T18:02:44;14.00;;;11.93;;
15307;SDS011;7755;52.208;6.964;2022-11-25T18:06:47;19.53;;;15.40;;
15307;SDS011;7755;52.208;6.964;2022-11-25T18:10:51;19.60;;;13.63;;
15307;SDS011;7755;52.208;6.964;2022-11-25T18:14:54;20.50;;;13.70;;
15307;SDS011;7755;52.208;6.964;2022-11-25T18:18:57;23.50;;;14.90;;
15307;SDS011;7755;52.208;6.964;2022-11-25T18:23:00;19.77;;;12.17;;
15307;SDS011;7755;52.208;6.964;2022-11-25T18:27:05;17.63;;;11.60;;
15307;SDS011;7755;52.208;6.964;2022-11-25T18:31:12;21.67;;;12.30;;
15307;SDS011;7755;52.208;6.964;2022-11-25T18:35:16;17.50;;;11.47;;
15307;SDS011;7755;52.208;6.964;2022-11-25T18:39:20;17.00;;;10.83;;
15307;SDS011;7755;52.208;6.964;2022-11-25T18:43:24;22.27;;;14.90;;
15307;SDS011;7755;52.208;6.964;2022-11-25T18:47:28;23.33;;;14.77;;
15307;SDS011;7755;52.208;6.964;2022-11-25T18:51:31;20.67;;;12.57;;
15307;SDS011;7755;52.208;6.964;2022-11-25T18:55:34;21.83;;;12.50;;
15307;SDS011;7755;52.208;6.964;2022-11-25T18:59:38;19.37;;;12.90;;
15307;SDS011;7755;52.208;6.964;2022-11-25T19:03:45;20.33;;;11.97;;
15307;SDS011;7755;52.208;6.964;2022-11-25T19:07:48;16.37;;;10.80;;
15307;SDS011;7755;52.208;6.964;2022-11-25T19:11:53;20.07;;;13.87;;
15307;SDS011;7755;52.208;6.964;2022-11-25T19:16:00;21.43;;;15.33;;
15307;SDS011;7755;52.208;6.964;2022-11-25T19:20:12;25.47;;;16.97;;
15307;SDS011;7755;52.208;6.964;2022-11-25T19:24:16;23.47;;;16.20;;
15307;SDS011;7755;52.208;6.964;2022-11-25T19:28:19;23.33;;;16.60;;
15307;SDS011;7755;52.208;6.964;2022-11-25T19:32:25;23.07;;;16.70;;
15307;SDS011;7755;52.208;6.964;2022-11-25T19:36:30;23.67;;;17.23;;
15307;SDS011;7755;52.208;6.964;2022-11-25T19:40:35;19.60;;;13.37;;
15307;SDS011;7755;52.208;6.964;2022-11-25T19:44:40;20.53;;;15.40;;
15307;SDS011;7755;52.208;6.964;2022-11-25T19:48:45;22.33;;;17.20;;
15307;SDS011;7755;52.208;6.964;2022-11-25T19:52:48;26.30;;;17.73;;
15307;SDS011;7755;52.208;6.964;2022-11-25T19:56:51;25.53;;;17.67;;
15307;SDS011;7755;52.208;6.964;2022-11-25T20:00:53;21.13;;;16.57;;
15307;SDS011;7755;52.208;6.964;2022-11-25T20:05:00;25.73;;;20.73;;
15307;SDS011;7755;52.208;6.964;2022-11-25T20:09:05;28.13;;;20.00;;
15307;SDS011;7755;52.208;6.964;2022-11-25T20:13:11;23.03;;;17.67;;
15307;SDS011;7755;52.208;6.964;2022-11-25T20:17:20;29.60;;;18.17;;
15307;SDS011;7755;52.208;6.964;2022-11-25T20:21:29;28.57;;;19.23;;
15307;SDS011;7755;52.208;6.964;2022-11-25T20:25:35;29.23;;;20.37;;
15307;SDS011;7755;52.208;6.964;2022-11-25T20:29:41;30.00;;;21.10;;
15307;SDS011;7755;52.208;6.964;2022-11-25T20:33:44;27.60;;;19.87;;
15307;SDS011;7755;52.208;6.964;2022-11-25T20:37:50;28.67;;;21.83;;
15307;SDS011;7755;52.208;6.964;2022-11-25T20:41:54;25.30;;;18.87;;
15307;SDS011;7755;52.208;6.964;2022-11-25T20:45:57;23.93;;;18.17;;
15307;SDS011;7755;52.208;6.964;2022-11-25T20:50:02;30.50;;;22.90;;
15307;SDS011;7755;52.208;6.964;2022-11-25T20:54:09;21.73;;;17.83;;
15307;SDS011;7755;52.208;6.964;2022-11-25T20:58:18;28.30;;;18.17;;
15307;SDS011;7755;52.208;6.964;2022-11-25T21:02:23;24.90;;;17.03;;
15307;SDS011;7755;52.208;6.964;2022-11-25T21:06:26;29.83;;;20.97;;
15307;SDS011;7755;52.208;6.964;2022-11-25T21:10:32;33.73;;;22.87;;
15307;SDS011;7755;52.208;6.964;2022-11-25T21:14:35;30.43;;;20.33;;
15307;SDS011;7755;52.208;6.964;2022-11-25T21:18:38;35.53;;;24.40;;
15307;SDS011;7755;52.208;6.964;2022-11-25T21:22:43;28.23;;;19.17;;
15307;SDS011;7755;52.208;6.964;2022-11-25T21:26:51;24.60;;;17.67;;
15307;SDS011;7755;52.208;6.964;2022-11-25T21:30:55;29.57;;;19.13;;
15307;SDS011;7755;52.208;6.964;2022-11-25T21:34:58;23.80;;;16.90;;
15307;SDS011;7755;52.208;6.964;2022-11-25T21:39:04;17.30;;;15.00;;
15307;SDS011;7755;52.208;6.964;2022-11-25T21:43:14;21.17;;;16.07;;
15307;SDS011;7755;52.208;6.964;2022-11-25T21:47:23;25.13;;;18.37;;
15307;SDS011;7755;52.208;6.964;2022-11-25T21:51:26;23.90;;;16.63;;
15307;SDS011;7755;52.208;6.964;2022-11-25T21:55:29;20.53;;;14.97;;
15307;SDS011;7755;52.208;6.964;2022-11-25T21:59:35;17.57;;;15.37;;
15307;SDS011;7755;52.208;6.964;2022-11-25T22:03:38;21.87;;;15.17;;
15307;SDS011;7755;52.208;6.964;2022-11-25T22:07:41;33.67;;;20.90;;
15307;SDS011;7755;52.208;6.964;2022-11-25T22:11:44;35.83;;;20.67;;
15307;SDS011;7755;52.208;6.964;2022-11-25T22:15:53;26.53;;;17.60;;
15307;SDS011;7755;52.208;6.964;2022-11-25T22:19:58;30.13;;;20.83;;
15307;SDS011;7755;52.208;6.964;2022-11-25T22:24:01;24.77;;;17.47;;
15307;SDS011;7755;52.208;6.964;2022-11-25T22:28:09;20.20;;;16.73;;
15307;SDS011;7755;52.208;6.964;2022-11-25T22:32:15;26.47;;;17.67;;
15307;SDS011;7755;52.208;6.964;2022-11-25T22:36:25;22.87;;;17.43;;
15307;SDS011;7755;52.208;6.964;2022-11-25T22:40:32;29.20;;;18.20;;
15307;SDS011;7755;52.208;6.964;2022-11-25T22:44:36;23.13;;;18.23;;
15307;SDS011;7755;52.208;6.964;2022-11-25T22:48:44;32.90;;;22.67;;
15307;SDS011;7755;52.208;6.964;2022-11-25T22:52:48;23.87;;;18.87;;
15307;SDS011;7755;52.208;6.964;2022-11-25T22:56:51;19.87;;;16.27;;
15307;SDS011;7755;52.208;6.964;2022-11-25T23:00:54;27.77;;;19.67;;
15307;SDS011;7755;52.208;6.964;2022-11-25T23:04:59;32.37;;;21.97;;
15307;SDS011;7755;52.208;6.964;2022-11-25T23:09:02;27.00;;;18.97;;
15307;SDS011;7755;52.208;6.964;2022-11-25T23:13:05;24.87;;;19.53;;
15307;SDS011;7755;52.208;6.964;2022-11-25T23:17:11;33.00;;;22.63;;
15307;SDS011;7755;52.208;6.964;2022-11-25T23:21:21;29.00;;;19.50;;
15307;SDS011;7755;52.208;6.964;2022-11-25T23:25:25;30.00;;;18.83;;
15307;SDS011;7755;52.208;6.964;2022-11-25T23:29:28;31.27;;;21.13;;
15307;SDS011;7755;52.208;6.964;2022-11-25T23:33:32;31.80;;;20.43;;
15307;SDS011;7755;52.208;6.964;2022-11-25T23:37:39;28.60;;;18.87;;
15307;SDS011;7755;52.208;6.964;2022-11-25T23:41:42;31.63;;;20.30;;
15307;SDS011;7755;52.208;6.964;2022-11-25T23:45:47;38.70;;;24.87;;
15307;SDS011;7755;52.208;6.964;2022-11-25T23:49:52;27.77;;;17.50;;
15307;SDS011;7755;52.208;6.964;2022-11-25T23:54:00;34.17;;;21.63;;
15307;SDS011;7755;52.208;6.964;2022-11-25T23:58:04;24.60;;;17.47;;
